Time;durP1;ratioP1;P1;durP2;ratioP2;P2;SDS_P1;SDS_P2;PMS_P1;PMS_P2;Temp;Humidity;BMP_temperature;BMP_pressure;BME280_temperature;BME280_humidity;BME280_pressure;Samples;Min_cycle;Max_cycle;Signal;HPM_P1;HPM_P2
2022/10/02 00:01:47;;;;;;;6.82;4.13;;;;;;;11.14;100.00;100234.72;5017995;28;20065;-80
2022/10/02 00:04:36;;;;;;;7.47;3.45;;;;;;;11.16;100.00;100227.59;5023388;28;20098;-79
2022/10/02 00:07:06;;;;;;;5.50;3.28;;;;;;;11.05;100.00;100238.50;4979904;28;20075;-80
2022/10/02 00:09:39;;;;;;;8.68;3.90;;;;;;;11.06;100.00;100234.06;5015882;28;20045;-80
2022/10/02 00:12:10;;;;;;;7.30;4.00;;;;;;;11.08;100.00;100242.81;4982186;28;20045;-79
2022/10/02 00:14:39;;;;;;;6.65;3.85;;;;;;;11.04;100.00;100242.06;4963127;28;20097;-79
2022/10/02 00:17:10;;;;;;;8.07;3.95;;;;;;;11.03;100.00;100252.69;4999328;28;20038;-80
2022/10/02 00:19:36;;;;;;;6.35;3.63;;;;;;;11.02;100.00;100249.16;5026612;28;20085;-79
2022/10/02 00:22:13;;;;;;;9.65;3.85;;;;;;;11.04;100.00;100251.75;5010705;28;20064;-80
2022/10/02 00:24:45;;;;;;;7.50;3.60;;;;;;;10.97;100.00;100246.66;5007316;28;20038;-79
2022/10/02 00:27:37;;;;;;;7.90;3.80;;;;;;;10.97;100.00;100251.94;5017563;28;20085;-80
2022/10/02 00:30:05;;;;;;;6.32;3.20;;;;;;;10.98;100.00;100258.09;5003451;28;20065;-79
2022/10/02 00:32:53;;;;;;;7.15;4.22;;;;;;;11.04;100.00;100242.06;5021930;28;20044;-80
2022/10/02 00:35:38;;;;;;;8.75;3.85;;;;;;;10.90;100.00;100244.22;4998377;28;20046;-79
2022/10/02 00:38:26;;;;;;;6.45;3.50;;;;;;;10.98;100.00;100252.78;4988514;28;20025;-79
2022/10/02 00:41:11;;;;;;;8.23;3.70;;;;;;;10.92;100.00;100242.38;5001179;28;20046;-79
2022/10/02 00:44:02;;;;;;;6.75;3.50;;;;;;;10.90;100.00;100244.22;4997834;28;20035;-80
2022/10/02 00:46:40;;;;;;;7.65;3.47;;;;;;;10.88;100.00;100261.91;5001892;28;20073;-80
2022/10/02 00:49:28;;;;;;;6.35;3.30;;;;;;;10.84;100.00;100261.09;4998332;28;20049;-80
2022/10/02 00:52:16;;;;;;;8.15;4.13;;;;;;;10.82;100.00;100260.28;5033122;28;20042;-80
2022/10/02 00:55:21;;;;;;;6.93;3.72;;;;;;;10.79;100.00;100263.03;4987341;28;20108;-79
2022/10/02 00:58:04;;;;;;;8.20;3.70;;;;;;;10.78;100.00;100266.59;4985044;28;20140;-79
2022/10/02 01:00:30;;;;;;;6.32;3.65;;;;;;;10.82;100.00;100265.56;5000410;28;20045;-79
2022/10/02 01:03:10;;;;;;;9.40;4.00;;;;;;;10.75;100.00;100266.66;4994623;28;20050;-79
2022/10/02 01:05:37;;;;;;;8.75;3.83;;;;;;;10.77;100.00;100261.34;4978957;28;20047;-79
2022/10/02 01:08:05;;;;;;;7.82;3.97;;;;;;;10.80;100.00;100261.25;4979911;28;20043;-79
2022/10/02 01:10:33;;;;;;;5.97;4.28;;;;;;;10.79;100.00;100267.44;4982888;28;20740;-78
2022/10/02 01:12:59;;;;;;;11.00;4.60;;;;;;;10.68;100.00;100276.53;4996096;28;20507;-78
2022/10/02 01:15:39;;;;;;;12.50;3.75;;;;;;;10.72;100.00;100279.94;5013807;28;20140;-79
2022/10/02 01:18:06;;;;;;;8.50;3.90;;;;;;;10.81;100.00;100281.47;5011266;28;20042;-81
2022/10/02 01:20:41;;;;;;;9.13;4.55;;;;;;;10.76;100.00;100278.06;4988792;28;20073;-79
2022/10/02 01:23:44;;;;;;;10.55;4.32;;;;;;;10.79;100.00;100278.03;5089637;23;20041;-81
2022/10/02 01:26:11;;;;;;;8.27;4.20;;;;;;;10.89;100.00;100290.94;5003475;28;20699;-80
2022/10/02 01:28:38;;;;;;;9.35;3.45;;;;;;;10.85;100.00;100293.72;5022198;28;20033;-81
2022/10/02 01:31:11;;;;;;;6.47;3.40;;;;;;;10.78;100.00;100295.66;5032195;28;20260;-80
2022/10/02 01:33:40;;;;;;;10.02;4.07;;;;;;;10.78;100.00;100294.78;5004932;28;20071;-81
2022/10/02 01:36:11;;;;;;;8.63;3.97;;;;;;;10.77;100.00;100298.34;5017450;28;20112;-81
2022/10/02 01:38:39;;;;;;;11.65;3.65;;;;;;;10.77;100.00;100301.84;5001316;28;20057;-82
2022/10/02 01:41:10;;;;;;;7.68;3.58;;;;;;;10.78;100.00;100308.84;5028605;28;20567;-82
2022/10/02 01:43:52;;;;;;;7.57;3.72;;;;;;;10.69;100.00;100304.69;5017859;28;20127;-81
2022/10/02 01:46:34;;;;;;;5.57;3.78;;;;;;;10.64;100.00;100303.06;5025055;28;20494;-81
2022/10/02 01:49:30;;;;;;;10.00;4.32;;;;;;;10.55;100.00;100312.09;5027878;28;20040;-82
2022/10/02 01:52:09;;;;;;;7.35;3.70;;;;;;;10.66;100.00;100317.97;5034066;28;20040;-81
2022/10/02 01:55:00;;;;;;;7.32;3.90;;;;;;;10.66;100.00;100320.59;4993898;28;20048;-82
2022/10/02 01:57:53;;;;;;;8.23;4.13;;;;;;;10.61;100.00;100319.88;5037787;28;20041;-82
2022/10/02 02:00:23;;;;;;;4.97;3.35;;;;;;;10.67;100.00;100313.53;5027463;28;20040;-82
2022/10/02 02:03:17;;;;;;;5.65;3.42;;;;;;;10.65;100.00;100312.72;5016849;28;20041;-81
2022/10/02 02:05:55;;;;;;;7.68;3.80;;;;;;;10.60;100.00;100326.06;5027635;28;20068;-82
2022/10/02 02:08:30;;;;;;;7.88;3.92;;;;;;;10.57;100.00;100319.97;5009976;28;20087;-82
2022/10/02 02:11:17;;;;;;;10.98;3.95;;;;;;;10.57;100.00;100325.25;5033766;28;20476;-81
2022/10/02 02:13:47;;;;;;;16.25;3.85;;;;;;;10.61;100.00;100322.53;5007925;28;20037;-81
2022/10/02 02:16:44;;;;;;;9.77;4.00;;;;;;;10.54;100.00;100320.06;5023550;28;20036;-81
2022/10/02 02:19:24;;;;;;;11.23;3.70;;;;;;;10.60;100.00;100335.78;5023035;28;20049;-82
2022/10/02 02:21:58;;;;;;;10.50;4.07;;;;;;;10.57;100.00;100331.41;5026575;28;20042;-82
2022/10/02 02:24:31;;;;;;;10.60;3.90;;;;;;;10.64;100.00;100335.63;5013574;28;20037;-82
2022/10/02 02:26:59;;;;;;;8.10;3.67;;;;;;;10.60;100.00;100341.06;5017001;28;20044;-81
2022/10/02 02:29:29;;;;;;;12.43;4.28;;;;;;;10.69;100.00;100333.75;4998918;28;20044;-82
2022/10/02 02:31:57;;;;;;;9.10;4.30;;;;;;;10.67;100.00;100338.19;5015657;28;20066;-81
2022/10/02 02:34:37;;;;;;;6.53;3.45;;;;;;;10.55;100.00;100337.66;5011474;28;20049;-81
2022/10/02 02:37:08;;;;;;;9.07;3.58;;;;;;;10.62;100.00;100332.19;5018034;28;20044;-81
2022/10/02 02:39:41;;;;;;;12.50;4.38;;;;;;;10.60;100.00;100335.78;5024100;28;20422;-81
2022/10/02 02:42:09;;;;;;;7.47;3.40;;;;;;;10.57;100.00;100336.69;5020152;28;20442;-78
2022/10/02 02:44:48;;;;;;;10.95;4.03;;;;;;;10.66;100.00;100328.53;5011040;28;20045;-79
2022/10/02 02:47:22;;;;;;;9.88;4.07;;;;;;;10.64;100.00;100337.41;5022269;28;20041;-79
2022/10/02 02:49:57;;;;;;;13.55;4.47;;;;;;;10.57;100.00;100330.53;5019972;28;20041;-80
2022/10/02 02:52:32;;;;;;;9.48;4.10;;;;;;;10.60;100.00;100336.63;5019590;28;20184;-79
2022/10/02 02:55:05;;;;;;;11.13;4.13;;;;;;;10.57;100.00;100338.47;5016190;28;20391;-79
2022/10/02 02:57:37;;;;;;;9.10;4.30;;;;;;;10.57;100.00;100341.97;5019155;28;20049;-78
2022/10/02 03:00:05;;;;;;;7.28;3.80;;;;;;;10.62;100.00;100340.09;5026033;28;20042;-78
2022/10/02 03:02:32;;;;;;;7.40;3.92;;;;;;;10.61;100.00;100338.38;5037154;28;20060;-78
2022/10/02 03:04:59;;;;;;;12.38;4.38;;;;;;;10.51;100.00;100338.63;5022470;28;20136;-79
2022/10/02 03:07:26;;;;;;;11.50;4.15;;;;;;;10.57;100.00;100343.75;5021010;28;20095;-78
2022/10/02 03:10:11;;;;;;;11.23;3.92;;;;;;;10.57;100.00;100352.53;5021056;28;20038;-79
2022/10/02 03:12:53;;;;;;;6.72;4.75;;;;;;;10.53;100.00;100348.25;5019777;28;20037;-77
2022/10/02 03:15:26;;;;;;;9.55;3.83;;;;;;;10.55;100.00;100358.78;5020371;28;20109;-78
2022/10/02 03:18:13;;;;;;;10.07;4.60;;;;;;;10.62;100.00;100355.09;5036655;28;20044;-77
2022/10/02 03:20:47;;;;;;;8.45;3.80;;;;;;;10.55;100.00;100357.00;5011983;28;20061;-78
2022/10/02 03:23:55;;;;;;;8.55;3.50;;;;;;;10.56;100.00;100360.50;5048889;28;20041;-79
2022/10/02 03:26:33;;;;;;;10.43;4.13;;;;;;;10.52;100.00;100346.53;5016101;28;20045;-79
2022/10/02 03:29:01;;;;;;;13.68;4.72;;;;;;;10.62;100.00;100357.72;5056423;28;20052;-80
2022/10/02 03:31:30;;;;;;;8.88;3.50;;;;;;;10.60;100.00;100354.25;5020673;28;20041;-82
2022/10/02 03:33:58;;;;;;;11.55;4.63;;;;;;;10.67;100.00;100351.41;5029415;28;20562;-82
2022/10/02 03:36:25;;;;;;;13.60;4.63;;;;;;;10.61;100.00;100359.50;5010746;28;20128;-81
2022/10/02 03:38:54;;;;;;;12.65;4.68;;;;;;;10.56;100.00;100355.22;5045507;28;20052;-79
2022/10/02 03:41:41;;;;;;;15.77;4.50;;;;;;;10.62;100.00;100363.88;5007123;28;20038;-81
2022/10/02 03:44:08;;;;;;;9.63;4.10;;;;;;;10.60;100.00;100355.13;5013294;28;20049;-80
2022/10/02 03:46:34;;;;;;;9.77;4.90;;;;;;;10.62;100.00;100355.94;4998283;28;20481;-78
2022/10/02 03:49:02;;;;;;;11.98;4.25;;;;;;;10.65;100.00;100355.84;5028433;28;20064;-80
2022/10/02 03:51:29;;;;;;;12.10;5.07;;;;;;;10.57;100.00;100355.19;5023607;28;20034;-80
2022/10/02 03:53:56;;;;;;;10.50;4.65;;;;;;;10.55;100.00;100361.41;5010897;28;20042;-80
2022/10/02 03:56:32;;;;;;;14.15;3.80;;;;;;;10.53;100.00;100364.09;4999518;28;20562;-79
2022/10/02 03:59:00;;;;;;;13.43;4.50;;;;;;;10.55;100.00;100369.34;5029889;28;20409;-79
2022/10/02 04:01:32;;;;;;;8.57;3.38;;;;;;;10.55;100.00;100364.06;5014057;28;20076;-80
2022/10/02 04:04:17;;;;;;;8.82;4.07;;;;;;;10.50;100.00;100371.22;5033236;28;20041;-80
2022/10/02 04:06:50;;;;;;;8.57;3.85;;;;;;;10.53;100.00;100382.59;5002986;28;20545;-78
2022/10/02 04:09:39;;;;;;;11.18;3.47;;;;;;;10.46;100.00;100375.72;5012957;28;20045;-80
2022/10/02 04:12:10;;;;;;;12.35;5.68;;;;;;;10.44;100.00;100388.09;5004171;28;20072;-80
2022/10/02 04:14:48;;;;;;;7.57;3.90;;;;;;;10.49;100.00;100380.06;5011503;28;20041;-80
2022/10/02 04:17:19;;;;;;;7.25;3.65;;;;;;;10.50;100.00;100380.00;5026740;28;20037;-79
2022/10/02 04:19:52;;;;;;;13.02;3.88;;;;;;;10.38;100.00;100375.91;5029186;28;20049;-80
2022/10/02 04:22:29;;;;;;;11.87;3.97;;;;;;;10.40;100.00;100386.44;5023545;28;20084;-80
2022/10/02 04:25:04;;;;;;;9.10;4.05;;;;;;;10.47;100.00;100377.47;5025430;28;20037;-80
2022/10/02 04:27:38;;;;;;;7.05;3.28;;;;;;;10.43;100.00;100381.09;5009054;28;20103;-80
2022/10/02 04:30:13;;;;;;;6.65;3.97;;;;;;;10.30;100.00;100382.28;5021881;28;20045;-79
2022/10/02 04:32:39;;;;;;;8.35;3.70;;;;;;;10.32;100.00;100385.75;5027816;28;20038;-81
2022/10/02 04:35:32;;;;;;;10.60;4.28;;;;;;;10.29;100.00;100377.91;5043787;28;20034;-81
2022/10/02 04:38:19;;;;;;;9.52;3.92;;;;;;;10.38;100.00;100382.97;5013054;28;20711;-80
2022/10/02 04:41:10;;;;;;;10.52;3.28;;;;;;;10.30;100.00;100380.50;5011624;28;20041;-81
2022/10/02 04:44:01;;;;;;;10.50;3.60;;;;;;;10.35;100.00;100378.63;5025802;28;20495;-81
2022/10/02 04:46:48;;;;;;;8.38;4.57;;;;;;;10.34;100.00;100373.38;5028863;28;20053;-78
2022/10/02 04:49:28;;;;;;;12.10;3.83;;;;;;;10.31;100.00;100374.31;5024666;28;20041;-80
2022/10/02 04:52:23;;;;;;;9.55;3.53;;;;;;;10.20;100.00;100354.34;5007331;28;20042;-80
2022/10/02 04:55:08;;;;;;;10.02;3.35;;;;;;;10.25;100.00;100368.31;4997031;28;20042;-79
2022/10/02 04:57:51;;;;;;;8.07;3.30;;;;;;;10.21;100.00;100371.91;5043834;28;20102;-79
2022/10/02 05:00:22;;;;;;;9.15;3.40;;;;;;;10.13;100.00;100364.16;5017860;28;20038;-79
2022/10/02 05:03:00;;;;;;;7.10;3.03;;;;;;;10.16;100.00;100372.00;5012872;28;20054;-80
2022/10/02 05:05:47;;;;;;;7.40;3.08;;;;;;;10.12;100.00;100370.34;5000721;28;20493;-81
2022/10/02 05:08:32;;;;;;;9.98;3.25;;;;;;;10.00;100.00;100371.47;5024246;28;20029;-80
2022/10/02 05:11:18;;;;;;;11.48;4.22;;;;;;;10.06;100.00;100373.13;5016818;28;20556;-80
2022/10/02 05:14:14;;;;;;;10.93;3.85;;;;;;;10.01;100.00;100383.81;5015084;28;20083;-80
2022/10/02 05:17:08;;;;;;;4.75;2.92;;;;;;;9.94;100.00;100386.59;5031853;28;20038;-79
2022/10/02 05:19:56;;;;;;;8.52;4.22;;;;;;;9.90;100.00;100385.78;5043186;28;20038;-80
2022/10/02 05:22:42;;;;;;;6.90;3.10;;;;;;;9.90;100.00;100391.06;5042509;28;20038;-80
2022/10/02 05:37:56;;;;;;;8.70;3.50;;;;;;;10.18;100.00;100416.88;5066100;27;20418;-81
2022/10/02 05:40:29;;;;;;;12.18;3.45;;;;;;;10.18;100.00;100422.16;5086898;28;20075;-81
2022/10/02 05:43:05;;;;;;;9.18;3.63;;;;;;;10.19;100.00;100410.69;5036462;28;20128;-82
2022/10/02 05:45:36;;;;;;;10.60;4.13;;;;;;;10.00;100.00;100402.28;5056524;28;20449;-83
2022/10/02 05:48:14;;;;;;;9.80;3.97;;;;;;;10.16;100.00;100419.50;5055000;28;20044;-80
2022/10/02 05:50:44;;;;;;;7.75;3.50;;;;;;;10.06;100.00;100421.50;5056387;28;20062;-82
2022/10/02 05:53:34;;;;;;;7.15;2.88;;;;;;;10.15;100.00;100423.94;5037040;28;20048;-82
2022/10/02 05:56:08;;;;;;;12.82;3.50;;;;;;;10.10;100.00;100424.97;5031303;28;20033;-82
2022/10/02 05:58:44;;;;;;;;;;;;;;;10.14;100.00;100423.97;5062430;28;20084;-80
2022/10/02 06:01:15;;;;;;;10.18;3.60;;;;;;;10.06;100.00;100425.91;5045347;28;20378;-81
2022/10/02 06:03:54;;;;;;;9.75;3.38;;;;;;;10.08;100.00;100426.75;5048158;28;20455;-81
2022/10/02 06:06:40;;;;;;;9.02;3.42;;;;;;;10.02;100.00;100427.75;5047980;28;20153;-81
2022/10/02 06:09:14;;;;;;;8.25;3.45;;;;;;;10.15;100.00;100431.84;5048903;28;20690;-81
2022/10/02 06:11:57;;;;;;;10.77;4.20;;;;;;;10.14;100.00;100427.47;5039826;28;20044;-81
2022/10/02 06:14:38;;;;;;;7.38;4.43;;;;;;;10.17;100.00;100426.53;5058595;28;20095;-81
2022/10/02 06:17:16;;;;;;;7.38;3.85;;;;;;;10.19;100.00;100426.53;5067816;28;20565;-82
2022/10/02 06:20:11;;;;;;;9.45;3.00;;;;;;;10.25;100.00;100419.34;5030121;28;20464;-82
2022/10/02 06:23:16;;;;;;;10.70;3.33;;;;;;;10.28;100.00;100432.50;5053964;28;20029;-81
2022/10/02 06:25:51;;;;;;;8.20;3.38;;;;;;;10.35;100.00;100431.44;5055985;28;20049;-83
2022/10/02 06:29:01;;;;;;;8.30;3.15;;;;;;;10.47;100.00;100438.19;5081142;28;20040;-82
2022/10/02 06:31:48;;;;;;;6.40;3.08;;;;;;;10.50;100.00;100442.53;5041707;28;20218;-81
2022/10/02 06:34:15;;;;;;;7.03;3.25;;;;;;;10.47;100.00;100445.25;5052948;28;20045;-83
2022/10/02 06:37:10;;;;;;;7.05;3.22;;;;;;;10.54;100.00;100444.22;5047492;28;20029;-81
2022/10/02 06:40:29;;;;;;;5.95;2.88;;;;;;;10.49;100.00;100435.53;5046277;28;20037;-83
2022/10/02 06:43:04;;;;;;;8.02;3.05;;;;;;;10.54;100.00;100441.56;5042027;28;20069;-83
2022/10/02 06:45:57;;;;;;;9.30;3.47;;;;;;;10.52;100.00;100432.81;5025187;28;20038;-82
2022/10/02 06:48:38;;;;;;;5.47;3.47;;;;;;;10.65;100.00;100439.53;5057218;28;20048;-83
2022/10/02 06:51:43;;;;;;;5.47;2.95;;;;;;;10.74;100.00;100439.31;5024219;28;20584;-84
2022/10/02 06:54:21;;;;;;;11.60;4.25;;;;;;;10.86;100.00;100439.03;5055871;28;20033;-81
2022/10/02 06:57:10;;;;;;;7.00;3.72;;;;;;;11.00;100.00;100438.66;5038206;28;20040;-82
2022/10/02 06:59:43;;;;;;;7.90;3.30;;;;;;;11.12;100.00;100435.69;5042878;28;20044;-83
2022/10/02 07:02:16;;;;;;;10.20;4.63;;;;;;;11.22;100.00;100436.31;5042254;28;20056;-82
2022/10/02 07:04:52;;;;;;;6.57;3.10;;;;;;;11.28;100.00;100439.69;5042046;28;20450;-83
2022/10/02 07:07:22;;;;;;;7.78;3.67;;;;;;;11.20;100.00;100444.31;5054307;28;20040;-83
2022/10/02 07:10:13;;;;;;;5.78;3.33;;;;;;;11.12;100.00;100445.41;5053840;28;20093;-82
2022/10/02 07:12:45;;;;;;;8.75;3.10;;;;;;;11.22;100.00;100438.97;5051123;28;20338;-83
2022/10/02 07:15:46;;;;;;;7.75;4.25;;;;;;;11.15;100.00;100443.53;5070011;28;20064;-84
2022/10/02 07:18:24;;;;;;;9.70;3.40;;;;;;;11.27;100.00;100445.88;5057837;28;20045;-82
2022/10/02 07:21:07;;;;;;;6.97;3.38;;;;;;;11.48;100.00;100452.34;5060436;28;20167;-82
2022/10/02 07:23:56;;;;;;;7.13;3.35;;;;;;;11.60;100.00;100447.63;5051807;28;20044;-82
2022/10/02 07:26:47;;;;;;;8.40;3.95;;;;;;;11.63;100.00;100447.56;5025473;28;20041;-82
2022/10/02 07:29:33;;;;;;;7.97;3.55;;;;;;;11.65;100.00;100445.72;5039314;28;20036;-82
2022/10/02 07:32:47;;;;;;;6.50;3.00;;;;;;;11.76;100.00;100449.78;5035468;28;20037;-82
2022/10/02 07:35:26;;;;;;;6.40;2.80;;;;;;;11.80;100.00;100446.19;5037395;28;20053;-82
2022/10/02 07:38:15;;;;;;;6.32;3.15;;;;;;;11.93;100.00;100449.34;5043479;28;20133;-82
2022/10/02 07:41:07;;;;;;;10.90;3.60;;;;;;;12.06;100.00;100460.44;5049325;28;20050;-80
2022/10/02 07:43:44;;;;;;;6.53;3.20;;;;;;;12.18;100.00;100456.53;5029817;28;20521;-82
2022/10/02 07:46:20;;;;;;;9.40;3.38;;;;;;;12.23;100.00;100471.41;5039801;28;20064;-81
2022/10/02 07:48:55;;;;;;;9.10;3.22;;;;;;;12.29;100.00;100475.66;5032973;28;20140;-80
2022/10/02 07:54:27;;;;;;;9.55;3.22;;;;;;;12.41;100.00;100467.31;5032272;28;20045;-81
2022/10/02 07:56:58;;;;;;;8.32;3.15;;;;;;;12.34;100.00;100469.28;5058208;28;20036;-82
2022/10/02 07:59:25;;;;;;;6.72;3.58;;;;;;;12.47;100.00;100469.78;5016483;28;20044;-84
2022/10/02 08:01:52;;;;;;;8.20;3.30;;;;;;;12.47;100.00;100476.88;5029414;28;20040;-81
2022/10/02 08:04:28;;;;;;;13.48;7.78;;;;;;;12.58;100.00;100472.09;5017517;28;20040;-83
2022/10/02 08:07:06;;;;;;;4.47;2.80;;;;;;;12.61;100.00;100469.31;5068185;28;20593;-81
2022/10/02 08:09:40;;;;;;;7.60;3.05;;;;;;;12.60;100.00;100454.34;5054854;28;20068;-80
2022/10/02 08:12:27;;;;;;;;;;;;;;;12.69;100.00;100459.34;5025812;28;20479;-79
2022/10/02 08:14:55;;;;;;;5.50;2.78;;;;;;;12.84;100.00;100455.34;5024220;28;20417;-79
2022/10/02 08:17:32;;;;;;;7.15;2.95;;;;;;;12.88;100.00;100460.50;5024239;28;20036;-80
2022/10/02 08:20:06;;;;;;;8.40;3.40;;;;;;;13.01;100.00;100457.44;5039554;28;20496;-80
2022/10/02 08:22:37;;;;;;;7.68;3.83;;;;;;;13.10;100.00;100444.72;5039264;28;20045;-80
2022/10/02 08:25:13;;;;;;;5.32;2.65;;;;;;;13.13;100.00;100452.59;5046001;28;20037;-78
2022/10/02 08:27:52;;;;;;;9.38;5.10;;;;;;;13.17;100.00;100456.00;5034574;28;20072;-78
2022/10/02 08:30:19;;;;;;;8.77;5.22;;;;;;;13.27;100.00;100468.03;5019289;28;20565;-81
2022/10/02 08:32:46;;;;;;;21.58;14.75;;;;;;;13.32;100.00;100473.19;5016703;28;20519;-78
2022/10/02 08:35:16;;;;;;;12.30;8.50;;;;;;;13.32;100.00;100470.56;5013916;28;20579;-80
2022/10/02 08:38:11;;;;;;;13.02;5.43;;;;;;;13.41;100.00;100481.69;5058807;28;20041;-82
2022/10/02 08:40:47;;;;;;;10.52;6.05;;;;;;;13.39;100.00;100472.06;5046050;28;20095;-79
2022/10/02 08:43:30;;;;;;;5.97;3.22;;;;;;;13.50;100.00;100472.56;5060829;28;20099;-82
2022/10/02 08:46:16;;;;;;;8.25;3.95;;;;;;;13.40;100.00;100476.47;5050253;28;20041;-81
2022/10/02 08:49:12;;;;;;;6.13;4.07;;;;;;;13.33;100.00;100474.94;5029683;28;20127;-81
2022/10/02 08:52:04;;;;;;;5.68;2.88;;;;;;;13.31;100.00;100475.00;5044151;28;20415;-84
2022/10/02 08:54:48;;;;;;;8.43;6.57;;;;;;;13.36;100.00;100474.81;5071326;28;20049;-84
2022/10/02 08:57:36;;;;;;;12.93;7.80;;;;;;;13.33;100.00;100477.59;5034219;28;20503;-81
2022/10/02 09:00:13;;;;;;;21.50;11.95;;;;;;;13.28;100.00;100472.44;5011318;28;20469;-83
2022/10/02 09:03:04;;;;;;;26.60;23.67;;;;;;;13.26;100.00;100476.06;5034443;28;20098;-81
2022/10/02 09:05:56;;;;;;;22.50;14.10;;;;;;;13.28;100.00;100487.47;5042937;28;20032;-83
2022/10/02 09:08:27;;;;;;;12.43;6.53;;;;;;;13.24;100.00;100490.25;5033781;28;20182;-83
2022/10/02 09:11:09;;;;;;;38.08;34.83;;;;;;;13.12;100.00;100489.78;5027629;28;20542;-86
2022/10/02 09:13:53;;;;;;;10.02;4.43;;;;;;;13.00;100.00;100492.81;5019294;28;20075;-82
2022/10/02 09:16:28;;;;;;;19.67;18.13;;;;;;;12.94;100.00;100500.03;5041774;28;20060;-83
2022/10/02 09:19:24;;;;;;;9.27;5.60;;;;;;;12.88;100.00;100494.97;5011261;28;20037;-85
2022/10/02 09:21:55;;;;;;;7.75;4.28;;;;;;;12.90;100.00;100490.47;5019466;28;20049;-84
2022/10/02 09:24:21;;;;;;;10.65;5.68;;;;;;;12.99;100.00;100491.09;5025265;28;20441;-84
2022/10/02 09:27:22;;;;;;;9.98;6.10;;;;;;;13.00;100.00;100484.88;5038936;28;20640;-84
2022/10/02 09:30:23;;;;;;;8.57;5.57;;;;;;;13.06;100.00;100495.28;5065337;28;20558;-84
2022/10/02 09:33:00;;;;;;;8.35;4.43;;;;;;;12.95;100.00;100496.50;5048007;28;20045;-85
2022/10/02 09:36:08;;;;;;;9.27;4.43;;;;;;;12.95;100.00;100504.47;5013306;28;20052;-83
2022/10/02 09:38:43;;;;;;;8.10;3.67;;;;;;;12.83;100.00;100507.50;5036627;28;20128;-84
2022/10/02 09:41:34;;;;;;;8.80;6.25;;;;;;;12.78;100.00;100509.44;5045139;28;20041;-84
2022/10/02 09:44:46;;;;;;;8.43;4.45;;;;;;;12.54;100.00;100507.56;5039866;28;20052;-84
2022/10/02 09:47:48;;;;;;;13.20;6.90;;;;;;;12.49;100.00;100512.13;5045848;28;20434;-81
2022/10/02 09:50:41;;;;;;;9.23;4.40;;;;;;;12.56;100.00;100503.06;5022806;28;20072;-81
2022/10/02 09:53:31;;;;;;;8.68;4.50;;;;;;;12.46;100.00;100507.78;5046725;28;20098;-81
2022/10/02 09:56:24;;;;;;;8.93;4.65;;;;;;;12.40;100.00;100498.25;5013348;28;20914;-83
2022/10/02 09:59:03;;;;;;;8.35;4.78;;;;;;;12.53;100.00;100495.22;5047323;28;20037;-82
2022/10/02 10:01:49;;;;;;;5.78;3.00;;;;;;;12.60;100.00;100504.69;5050033;28;20049;-83
2022/10/02 10:04:37;;;;;;;5.72;3.03;;;;;;;12.68;100.00;100494.72;5051759;28;20041;-82
2022/10/02 10:07:52;;;;;;;6.88;2.95;;;;;;;12.80;100.00;100483.75;5042510;28;20052;-85
2022/10/02 10:10:31;;;;;;;6.88;3.15;;;;;;;12.92;100.00;100485.97;5049894;28;20041;-83
2022/10/02 10:13:06;;;;;;;2.95;2.65;;;;;;;12.93;100.00;100482.41;5035815;28;20039;-85
2022/10/02 10:16:17;;;;;;;7.22;3.83;;;;;;;12.93;100.00;100476.25;5037591;28;20048;-80
2022/10/02 10:19:09;;;;;;;4.45;3.33;;;;;;;12.90;100.00;100484.31;5017978;28;20646;-85
2022/10/02 10:22:16;;;;;;;4.65;2.83;;;;;;;12.77;100.00;100478.53;5055831;28;20068;-84
2022/10/02 10:25:15;;;;;;;5.65;2.78;;;;;;;12.64;100.00;100471.91;5038045;28;20056;-82
2022/10/02 10:27:54;;;;;;;3.80;3.05;;;;;;;12.58;100.00;100477.38;5051589;28;20056;-84
2022/10/02 10:30:43;;;;;;;7.05;4.07;;;;;;;12.83;100.00;100477.47;5028834;28;20492;-82
2022/10/02 10:33:33;;;;;;;4.60;3.33;;;;;;;13.18;100.00;100470.97;5033230;28;20052;-84
2022/10/02 10:38:30;;;;;;;4.97;4.47;;;;;;;13.59;100.00;100468.69;5015712;28;20099;-81
2022/10/02 10:39:21;;;;;;;5.60;3.20;;;;;;;13.89;100.00;100462.28;5048996;28;20048;-83
2022/10/02 10:41:54;;;;;;;4.88;3.47;;;;;;;14.25;100.00;100462.66;5033967;28;20043;-82
2022/10/02 10:44:47;;;;;;;7.90;3.72;;;;;;;14.46;100.00;100454.81;5031009;28;20056;-80
2022/10/02 10:47:23;;;;;;;3.83;1.95;;;;;;;14.45;100.00;100450.38;5042996;28;20068;-81
2022/10/02 10:50:04;;;;;;;3.30;2.60;;;;;;;14.70;100.00;100460.94;5031455;28;20064;-80
2022/10/02 10:53:16;;;;;;;5.57;2.92;;;;;;;14.75;100.00;100459.81;5032483;28;20045;-83
2022/10/02 10:56:12;;;;;;;3.65;1.88;;;;;;;14.90;100.00;100458.34;5079252;28;20436;-82
2022/10/02 10:58:52;;;;;;;2.75;1.88;;;;;;;14.87;100.00;100454.00;5048114;28;20050;-82
2022/10/02 11:01:22;;;;;;;3.47;1.33;;;;;;;14.96;100.00;100454.53;5052729;28;20060;-83
2022/10/02 11:04:07;;;;;;;2.45;1.30;;;;;;;15.08;100.00;100470.88;5011447;28;20507;-82
2022/10/02 11:07:10;;;;;;;1.85;1.45;;;;;;;15.11;100.00;100461.88;5029019;28;20041;-83
2022/10/02 11:09:52;;;;;;;3.20;1.40;;;;;;;15.25;100.00;100459.50;5032731;28;20037;-84
2022/10/02 11:12:43;;;;;;;1.60;1.17;;;;;;;15.20;100.00;100457.03;5029261;28;20041;-85
2022/10/02 11:15:37;;;;;;;3.38;1.45;;;;;;;15.42;100.00;100456.13;5030430;28;20056;-84
2022/10/02 11:18:41;;;;;;;3.50;1.58;;;;;;;15.53;100.00;100456.50;5017143;28;20102;-83
2022/10/02 11:21:29;;;;;;;2.58;1.45;;;;;;;15.61;100.00;100457.06;5037451;28;20040;-82
2022/10/02 11:24:25;;;;;;;2.92;1.80;;;;;;;15.65;100.00;100448.00;5050641;28;20094;-84
2022/10/02 11:27:26;;;;;;;2.90;1.50;;;;;;;15.74;100.00;100454.72;5045685;28;20719;-80
2022/10/02 11:30:21;;;;;;;3.63;3.33;;;;;;;15.61;100.00;100453.53;5030842;28;20041;-82
2022/10/02 11:33:14;;;;;;;2.70;1.88;;;;;;;15.77;100.00;100459.91;5015112;28;20584;-82
2022/10/02 11:36:18;;;;;;;6.55;3.67;;;;;;;15.90;99.83;100452.25;5029227;28;20044;-82
2022/10/02 11:39:07;;;;;;;4.65;1.92;;;;;;;15.81;97.34;100447.31;5044908;28;20062;-81
2022/10/02 11:42:11;;;;;;;3.40;2.00;;;;;;;15.76;97.63;100444.88;5032450;28;20135;-84
2022/10/02 11:45:01;;;;;;;4.30;2.50;;;;;;;15.89;96.68;100443.38;5041284;28;20103;-82
2022/10/02 11:47:47;;;;;;;5.55;2.45;;;;;;;15.88;95.20;100454.09;5042389;28;20060;-82
2022/10/02 11:50:34;;;;;;;6.35;2.13;;;;;;;15.77;94.22;100447.44;5030211;28;20513;-84
2022/10/02 11:53:22;;;;;;;3.70;2.35;;;;;;;16.11;93.56;100445.91;5031717;28;20136;-83
2022/10/02 11:56:00;;;;;;;6.40;2.50;;;;;;;16.10;93.46;100454.84;5026529;28;20041;-83
2022/10/02 11:58:51;;;;;;;2.95;1.70;;;;;;;15.91;95.85;100449.50;5032303;28;20052;-85
2022/10/02 12:01:30;;;;;;;5.45;2.42;;;;;;;15.94;94.88;100443.16;5024329;28;20091;-83
2022/10/02 12:04:09;;;;;;;6.03;2.58;;;;;;;15.73;87.38;100443.22;5029569;28;20724;-83
2022/10/02 12:06:50;;;;;;;5.40;2.08;;;;;;;15.72;93.09;100459.22;5035104;28;20064;-84
2022/10/02 12:09:42;;;;;;;7.22;2.63;;;;;;;15.52;93.28;100454.78;5043120;28;20056;-85
2022/10/02 12:12:31;;;;;;;7.72;2.70;;;;;;;15.60;94.90;100455.31;5029488;28;20048;-82
2022/10/02 12:15:34;;;;;;;3.72;2.40;;;;;;;15.53;94.10;100450.31;5032475;28;20056;-83
2022/10/02 12:18:12;;;;;;;3.47;1.63;;;;;;;15.63;90.18;100455.19;5013464;28;20041;-84
2022/10/02 12:26:57;;;;;;;4.70;2.10;;;;;;;15.92;90.66;100455.69;5029941;28;20088;-84
2022/10/02 12:29:39;;;;;;;4.57;1.88;;;;;;;15.90;86.63;100465.56;5044712;28;20041;-82
2022/10/02 12:32:36;;;;;;;7.68;2.45;;;;;;;16.02;87.27;100451.66;5047613;28;20499;-82
2022/10/02 12:35:19;;;;;;;4.25;2.35;;;;;;;16.18;88.84;100462.47;5046451;28;20407;-81
2022/10/02 12:38:06;;;;;;;4.00;1.80;;;;;;;15.96;79.19;100451.94;5030707;28;20765;-81
2022/10/02 12:40:45;;;;;;;4.32;1.70;;;;;;;16.26;81.60;100461.19;5031978;28;20045;-80
2022/10/02 12:43:41;;;;;;;5.60;2.38;;;;;;;16.08;79.92;100455.84;5031177;28;20735;-80
2022/10/02 12:46:26;;;;;;;3.55;2.05;;;;;;;15.95;80.41;100461.72;5027653;28;20063;-83